createdAt,value
2023-03-12T00:02:11.059Z,94591.06
2023-03-12T00:04:38.504Z,94593.16
2023-03-12T00:07:06.069Z,94596.84
2023-03-12T00:09:38.261Z,94604.73
2023-03-12T00:12:06.101Z,94605.16
2023-03-12T00:14:33.654Z,94609.85
2023-03-12T00:17:00.518Z,94611.50
2023-03-12T00:19:27.431Z,94613.64
2023-03-12T00:21:54.264Z,94613.77
2023-03-12T00:24:21.531Z,94613.65
2023-03-12T00:26:48.478Z,94611.88
2023-03-12T00:29:15.536Z,94616.91
2023-03-12T00:31:42.548Z,94621.92
2023-03-12T00:34:10.456Z,94623.34
2023-03-12T00:36:37.696Z,94625.64
2023-03-12T00:39:05.072Z,94628.73
2023-03-12T00:41:32.014Z,94633.55
2023-03-12T00:43:58.801Z,94638.85
2023-03-12T00:46:26.334Z,94650.48
2023-03-12T00:48:53.465Z,94654.54
2023-03-12T00:51:20.402Z,94657.02
2023-03-12T00:53:47.396Z,94661.34
2023-03-12T00:56:15.028Z,94661.19
2023-03-12T00:58:42.932Z,94662.70
2023-03-12T01:01:10.507Z,94661.64
2023-03-12T01:03:37.835Z,94659.77
2023-03-12T01:06:05.670Z,94657.77
2023-03-12T01:08:33.635Z,94655.30
2023-03-12T01:11:00.695Z,94658.64
2023-03-12T01:13:27.667Z,94652.11
2023-03-12T01:15:55.415Z,94647.59
2023-03-12T01:18:22.474Z,94646.20
2023-03-12T01:20:49.601Z,94651.88
2023-03-12T01:23:16.653Z,94653.84
2023-03-12T01:25:43.499Z,94657.64
2023-03-12T01:28:10.361Z,94659.73
2023-03-12T01:30:37.397Z,94662.67
2023-03-12T01:33:04.439Z,94664.01
2023-03-12T01:35:39.094Z,94666.96
2023-03-12T01:38:07.553Z,94669.06
2023-03-12T01:40:35.532Z,94676.95
2023-03-12T01:43:24.400Z,94680.69
2023-03-12T01:46:06.233Z,94688.07
2023-03-12T01:48:44.281Z,94688.03
2023-03-12T01:51:14.730Z,94692.61
2023-03-12T01:53:46.644Z,94696.98
2023-03-12T01:56:16.791Z,94695.45
2023-03-12T01:58:49.279Z,94698.95
2023-03-12T02:01:18.460Z,94697.70
2023-03-12T02:03:50.050Z,94700.95
2023-03-12T02:06:22.961Z,94703.24
2023-03-12T02:08:50.775Z,94706.11
2023-03-12T02:11:17.534Z,94706.05
2023-03-12T02:13:44.803Z,94713.18
2023-03-12T02:16:11.957Z,94713.21
2023-03-12T02:18:38.902Z,94711.70
2023-03-12T02:21:22.689Z,94715.34
2023-03-12T02:23:56.737Z,94713.14
2023-03-12T02:26:26.740Z,94722.33
2023-03-12T02:28:54.155Z,94721.43
2023-03-12T02:31:25.853Z,94721.58
2023-03-12T02:33:53.110Z,94729.17
2023-03-12T02:36:20.312Z,94731.40
2023-03-12T02:38:49.405Z,94736.89
2023-03-12T02:41:22.639Z,94738.45
2023-03-12T02:44:16.355Z,94744.05
2023-03-12T02:46:48.429Z,94748.44
2023-03-12T02:49:16.496Z,94752.95
2023-03-12T02:51:45.163Z,94754.77
2023-03-12T02:54:14.914Z,94754.76
2023-03-12T02:56:41.822Z,94754.63
2023-03-12T02:59:10.317Z,94759.92
2023-03-12T03:01:40.602Z,94764.59
2023-03-12T03:04:09.980Z,94767.87
2023-03-12T03:06:40.985Z,94774.02
2023-03-12T03:09:07.832Z,94776.77
2023-03-12T03:11:35.157Z,94776.67
2023-03-12T03:14:03.898Z,94780.65
2023-03-12T03:16:30.826Z,94786.14
2023-03-12T03:18:58.802Z,94790.02
2023-03-12T03:21:25.741Z,94793.70
2023-03-12T03:23:52.583Z,94796.05
2023-03-12T03:26:22.284Z,94802.20
2023-03-12T03:28:50.349Z,94801.91
2023-03-12T03:31:18.181Z,94804.76
2023-03-12T03:33:45.285Z,94806.65
2023-03-12T03:36:14.490Z,94809.85
2023-03-12T03:38:48.839Z,94815.48
2023-03-12T03:41:17.804Z,94823.27
2023-03-12T03:43:45.575Z,94823.64
2023-03-12T03:46:14.068Z,94828.00
2023-03-12T03:48:43.150Z,94824.54
2023-03-12T03:51:11.228Z,94826.33
2023-03-12T03:53:40.743Z,94829.84
2023-03-12T03:56:10.809Z,94841.22
2023-03-12T03:58:39.544Z,94841.41
2023-03-12T04:01:07.304Z,94839.06
2023-03-12T04:03:35.534Z,94842.83
2023-03-12T04:06:05.867Z,94847.77
2023-03-12T04:08:36.614Z,94850.23
2023-03-12T04:11:14.275Z,94857.94
2023-03-12T04:13:43.023Z,94859.06
2023-03-12T04:16:11.106Z,94861.05
2023-03-12T04:18:39.600Z,94858.80
2023-03-12T04:21:09.159Z,94861.08
2023-03-12T04:23:37.175Z,94863.80
2023-03-12T04:26:05.751Z,94867.48
2023-03-12T04:28:34.328Z,94871.18
2023-03-12T04:31:05.572Z,94874.39
2023-03-12T04:33:38.976Z,94883.35
2023-03-12T04:36:07.497Z,94886.67
2023-03-12T04:38:35.549Z,94892.47
2023-03-12T04:41:08.408Z,94906.26
2023-03-12T04:43:36.605Z,94911.28
2023-03-12T04:46:04.473Z,94912.35
2023-03-12T04:48:32.345Z,94912.27
2023-03-12T04:50:59.309Z,94915.94
2023-03-12T04:53:26.890Z,94921.39
2023-03-12T04:55:54.206Z,94927.26
2023-03-12T04:58:22.286Z,94925.68
2023-03-12T05:00:50.118Z,94936.20
2023-03-12T05:03:18.246Z,94948.05
2023-03-12T05:05:46.916Z,94948.65
2023-03-12T05:08:14.408Z,94946.92
2023-03-12T05:10:44.903Z,94951.38
2023-03-12T05:13:15.119Z,94965.16
2023-03-12T05:15:43.028Z,94965.48
2023-03-12T05:18:09.933Z,94969.08
2023-03-12T05:20:38.067Z,94972.61
2023-03-12T05:23:05.065Z,94970.23
2023-03-12T05:25:32.008Z,94969.67
2023-03-12T05:27:59.575Z,94972.10
2023-03-12T05:30:26.932Z,94980.55
2023-03-12T05:32:53.998Z,94990.45
2023-03-12T05:35:21.309Z,94995.83
2023-03-12T05:37:48.106Z,94994.10
2023-03-12T05:40:15.024Z,94993.11
2023-03-12T05:42:42.481Z,94998.11
2023-03-12T05:45:10.049Z,95005.64
2023-03-12T05:47:37.913Z,95017.11
2023-03-12T05:50:06.097Z,95024.54
2023-03-12T05:52:33.202Z,95033.02
2023-03-12T05:55:00.490Z,95032.75
2023-03-12T05:57:27.530Z,95031.66
2023-03-12T05:59:54.573Z,95032.13
2023-03-12T06:02:21.556Z,95040.58
2023-03-12T06:04:48.786Z,95040.24
2023-03-12T06:07:15.631Z,95047.08
2023-03-12T06:09:42.476Z,95055.86
2023-03-12T06:12:10.653Z,95066.02
2023-03-12T06:14:37.800Z,95072.45
2023-03-12T06:17:04.753Z,95070.88
2023-03-12T06:19:31.521Z,95072.95
2023-03-12T06:21:58.369Z,95076.08
2023-03-12T06:24:27.020Z,95082.81
2023-03-12T06:26:57.854Z,95088.33
2023-03-12T06:29:25.131Z,95091.86
2023-03-12T06:31:52.286Z,95095.04
2023-03-12T06:34:21.130Z,95101.23
2023-03-12T06:36:48.108Z,95110.74
2023-03-12T06:39:14.803Z,95115.71
2023-03-12T06:41:41.695Z,95118.20
2023-03-12T06:44:08.843Z,95118.69
2023-03-12T06:46:36.549Z,95117.17
2023-03-12T06:49:03.635Z,95121.75
2023-03-12T06:51:30.617Z,95125.02
2023-03-12T06:53:57.442Z,95131.38
2023-03-12T06:56:24.419Z,95135.91
2023-03-12T06:58:51.097Z,95137.62
2023-03-12T07:01:18.291Z,95146.19
2023-03-12T07:03:45.546Z,95146.44
2023-03-12T07:06:23.869Z,95150.10
2023-03-12T07:08:51.690Z,95149.66
2023-03-12T07:11:18.428Z,95153.08
2023-03-12T07:13:45.533Z,95155.32
2023-03-12T07:16:14.695Z,95161.17
2023-03-12T07:18:41.877Z,95170.42
2023-03-12T07:21:08.916Z,95172.14
2023-03-12T07:23:35.879Z,95178.73
2023-03-12T07:26:06.845Z,95184.52
2023-03-12T07:28:33.666Z,95188.93
2023-03-12T07:31:03.049Z,95188.93
2023-03-12T07:33:30.068Z,95197.10
2023-03-12T07:35:57.579Z,95201.02
2023-03-12T07:38:25.354Z,95205.11
2023-03-12T07:40:53.948Z,95208.36
2023-03-12T07:43:21.981Z,95215.02
2023-03-12T07:45:51.500Z,95219.90
2023-03-12T07:48:19.630Z,95212.98
2023-03-12T07:50:46.744Z,95209.50
2023-03-12T07:53:13.772Z,95210.84
2023-03-12T07:55:45.920Z,95215.84
2023-03-12T07:58:15.180Z,95219.48
2023-03-12T08:00:42.089Z,95225.89
2023-03-12T08:03:09.220Z,95224.34
2023-03-12T08:05:36.214Z,95225.33
2023-03-12T08:08:03.169Z,95219.54
2023-03-12T08:10:30.553Z,95220.73
2023-03-12T08:12:57.687Z,95221.98
2023-03-12T08:15:24.999Z,95219.06
2023-03-12T08:17:51.722Z,95218.86
2023-03-12T08:20:18.602Z,95215.92
2023-03-12T08:22:45.842Z,95221.90
2023-03-12T08:25:13.286Z,95226.63
2023-03-12T08:27:40.756Z,95228.01
2023-03-12T08:30:08.411Z,95226.77
2023-03-12T08:32:35.350Z,95230.70
2023-03-12T08:35:04.575Z,95235.61
2023-03-12T08:37:32.341Z,95235.60
2023-03-12T08:39:59.715Z,95242.48
2023-03-12T08:42:26.678Z,95247.28
2023-03-12T08:44:53.550Z,95246.59
2023-03-12T08:54:57.773Z,95253.59
2023-03-12T08:57:26.047Z,95256.23
2023-03-12T08:59:54.313Z,95258.95
2023-03-12T09:02:22.508Z,95262.29
2023-03-12T09:04:51.179Z,95267.20
2023-03-12T09:07:19.346Z,95266.27
2023-03-12T09:09:47.449Z,95270.69
2023-03-12T09:12:15.808Z,95275.80
2023-03-12T09:15:02.406Z,95272.64
2023-03-12T09:17:31.355Z,95276.06
2023-03-12T09:20:00.405Z,95280.21
2023-03-12T09:22:30.735Z,95281.03
2023-03-12T09:24:58.898Z,95284.73
2023-03-12T09:27:26.981Z,95280.81
2023-03-12T09:30:00.723Z,95280.52
2023-03-12T09:32:29.820Z,95283.55
2023-03-12T09:34:58.059Z,95284.88
2023-03-12T09:37:26.488Z,95285.00
2023-03-12T09:39:54.821Z,95283.66
2023-03-12T09:42:40.518Z,95285.05
2023-03-12T09:45:17.280Z,95285.03
2023-03-12T09:47:59.189Z,95286.52
2023-03-12T09:50:31.868Z,95285.84
2023-03-12T09:53:04.762Z,95285.49
2023-03-12T09:55:38.363Z,95289.79
2023-03-12T09:58:29.877Z,95293.52
2023-03-12T10:01:19.854Z,95289.27
2023-03-12T10:04:16.205Z,95291.56
2023-03-12T10:06:56.565Z,95295.35
2023-03-12T10:10:02.748Z,95301.96
2023-03-12T10:13:05.106Z,95302.83
2023-03-12T10:15:49.538Z,95309.07
2023-03-12T10:18:55.222Z,95311.79
2023-03-12T10:21:58.545Z,95310.73
2023-03-12T10:24:44.841Z,95310.07
2023-03-12T10:27:16.209Z,95309.60
2023-03-12T10:29:48.668Z,95308.70
2023-03-12T10:32:35.683Z,95305.93
2023-03-12T10:35:19.345Z,95307.92
2023-03-12T10:37:54.550Z,95309.84
2023-03-12T10:40:49.230Z,95306.96
2023-03-12T10:43:17.612Z,95305.15
2023-03-12T10:46:07.774Z,95302.99
2023-03-12T10:48:36.094Z,95301.91
2023-03-12T10:51:07.920Z,95295.05
2023-03-12T10:53:39.051Z,95291.55
2023-03-12T10:56:09.281Z,95296.44
2023-03-12T10:58:46.603Z,95292.36
2023-03-12T11:01:25.463Z,95291.52
2023-03-12T11:04:10.090Z,95295.33
2023-03-12T11:06:38.280Z,95293.72
2023-03-12T11:09:18.639Z,95293.30
2023-03-12T11:11:50.702Z,95295.39
2023-03-12T11:14:24.927Z,95299.44
2023-03-12T11:16:54.639Z,95302.33
2023-03-12T11:19:34.024Z,95300.59
2023-03-12T11:22:05.549Z,95303.74
2023-03-12T11:24:34.345Z,95305.61
2023-03-12T11:27:07.496Z,95306.51
2023-03-12T11:29:43.734Z,95297.37
2023-03-12T11:32:11.945Z,95293.11
2023-03-12T11:34:41.852Z,95291.40
2023-03-12T11:37:16.085Z,95292.54
2023-03-12T11:40:10.202Z,95294.84
2023-03-12T11:42:41.619Z,95289.77
2023-03-12T11:45:34.682Z,95291.30
2023-03-12T11:48:23.405Z,95296.25
2023-03-12T11:51:51.310Z,95296.52
2023-03-12T11:54:38.067Z,95300.32
2023-03-12T11:57:06.302Z,95298.13
2023-03-12T12:00:14.111Z,95299.23
2023-03-12T12:03:20.241Z,95294.08
2023-03-12T12:05:59.754Z,95294.63
2023-03-12T12:08:46.430Z,95293.56
2023-03-12T12:11:17.384Z,95290.20
2023-03-12T12:14:07.367Z,95285.03
2023-03-12T12:16:50.659Z,95286.94
2023-03-12T12:19:22.158Z,95292.66
2023-03-12T12:22:08.607Z,95296.28
2023-03-12T12:25:08.047Z,95297.22
2023-03-12T12:27:56.840Z,95296.87
2023-03-12T12:31:06.554Z,95294.63
2023-03-12T12:33:51.018Z,95302.01
2023-03-12T12:36:19.406Z,95299.32
2023-03-12T12:39:01.499Z,95300.60
2023-03-12T12:41:35.452Z,95307.15
2023-03-12T12:44:12.979Z,95307.45
2023-03-12T12:46:50.465Z,95312.27
2023-03-12T12:49:30.750Z,95309.98
2023-03-12T12:52:05.093Z,95308.80
2023-03-12T12:54:51.414Z,95312.31
2023-03-12T12:57:26.412Z,95311.93
2023-03-12T13:00:25.617Z,95313.05
2023-03-12T13:02:57.218Z,95316.85
2023-03-12T13:05:44.508Z,95310.36
2023-03-12T13:08:32.232Z,95311.43
2023-03-12T13:11:17.271Z,95309.87
2023-03-12T13:13:58.588Z,95316.94
2023-03-12T13:16:39.621Z,95323.57
2023-03-12T13:19:13.917Z,95326.12
2023-03-12T13:22:00.909Z,95321.94
2023-03-12T13:24:54.301Z,95324.13
2023-03-12T13:27:30.103Z,95328.56
2023-03-12T13:29:59.496Z,95325.73
2023-03-12T13:32:36.991Z,95324.69
2023-03-12T13:35:11.895Z,95326.09
2023-03-12T13:37:48.755Z,95335.05
2023-03-12T13:40:29.228Z,95333.22
2023-03-12T13:43:03.429Z,95339.89
2023-03-12T13:45:32.047Z,95340.13
2023-03-12T13:48:03.710Z,95340.92
2023-03-12T13:50:34.187Z,95343.09
2023-03-12T13:53:04.848Z,95346.95
2023-03-12T13:55:44.831Z,95346.98
2023-03-12T13:58:12.957Z,95351.50
2023-03-12T14:01:05.981Z,95352.23
2023-03-12T14:03:40.626Z,95352.83
2023-03-12T14:06:14.876Z,95349.42
2023-03-12T14:09:24.317Z,95345.69
2023-03-12T14:12:01.713Z,95348.52
2023-03-12T14:14:45.124Z,95348.05
2023-03-12T14:17:24.418Z,95349.52
2023-03-12T14:20:07.380Z,95345.45
2023-03-12T14:22:39.485Z,95348.52
2023-03-12T14:25:32.312Z,95353.70
2023-03-12T14:28:03.903Z,95350.91
2023-03-12T14:30:38.105Z,95348.06
2023-03-12T14:33:07.832Z,95349.95
2023-03-12T14:35:44.750Z,95350.80
2023-03-12T14:38:33.742Z,95350.95
2023-03-12T14:41:02.138Z,95349.05
2023-03-12T14:43:33.633Z,95348.97
2023-03-12T14:46:05.102Z,95352.86
2023-03-12T14:48:37.158Z,95348.91
2023-03-12T14:51:07.415Z,95351.81
2023-03-12T14:53:37.954Z,95353.12
2023-03-12T14:56:15.064Z,95351.35
2023-03-12T14:58:46.401Z,95355.63
2023-03-12T15:01:26.282Z,95356.52
2023-03-12T15:04:01.390Z,95358.64
2023-03-12T15:06:44.296Z,95363.45
2023-03-12T15:09:18.125Z,95362.95
2023-03-12T15:12:15.363Z,95364.25
2023-03-12T15:14:43.948Z,95369.16
2023-03-12T15:17:20.885Z,95370.64
2023-03-12T15:19:50.498Z,95371.04
2023-03-12T15:22:21.485Z,95375.02
2023-03-12T15:24:49.631Z,95379.11
2023-03-12T15:27:24.562Z,95383.45
2023-03-12T15:29:52.980Z,95381.18
2023-03-12T15:32:25.246Z,95379.57
2023-03-12T15:34:57.585Z,95384.88
2023-03-12T15:37:38.398Z,95384.95
2023-03-12T15:40:28.386Z,95386.73
2023-03-12T15:43:01.966Z,95385.81
2023-03-12T15:45:38.092Z,95386.94
2023-03-12T15:48:16.456Z,95388.23
2023-03-12T15:50:45.778Z,95388.59
2023-03-12T15:53:14.034Z,95394.70
2023-03-12T15:55:42.450Z,95397.49
2023-03-12T15:58:31.814Z,95402.59
2023-03-12T16:01:14.875Z,95405.91
2023-03-12T16:03:45.624Z,95405.48
2023-03-12T16:06:26.159Z,95411.82
2023-03-12T16:09:04.360Z,95418.52
2023-03-12T16:11:37.132Z,95414.50
2023-03-12T16:14:13.839Z,95415.97
2023-03-12T16:16:42.089Z,95423.65
2023-03-12T16:19:18.676Z,95432.51
2023-03-12T16:21:47.258Z,95437.43
2023-03-12T16:24:16.676Z,95440.36
2023-03-12T16:26:51.906Z,95444.14
2023-03-12T16:29:21.375Z,95447.05
2023-03-12T16:31:55.952Z,95452.15
2023-03-12T16:34:24.213Z,95458.53
2023-03-12T16:36:52.848Z,95461.94
2023-03-12T16:39:21.173Z,95460.96
2023-03-12T16:41:49.898Z,95461.66
2023-03-12T16:44:21.670Z,95467.77
2023-03-12T16:46:49.908Z,95471.82
2023-03-12T16:49:20.191Z,95471.17
2023-03-12T16:51:48.388Z,95479.09
2023-03-12T16:54:16.544Z,95482.63
2023-03-12T16:56:48.502Z,95489.67
2023-03-12T16:59:28.998Z,95493.92
2023-03-12T17:01:57.608Z,95497.38
2023-03-12T17:04:25.984Z,95497.19
2023-03-12T17:06:54.342Z,95505.91
2023-03-12T17:09:23.205Z,95509.56
2023-03-12T17:11:52.514Z,95521.39
2023-03-12T17:14:22.960Z,95523.61
2023-03-12T17:16:51.419Z,95526.11
2023-03-12T17:19:19.998Z,95528.88
2023-03-12T17:21:49.606Z,95537.54
2023-03-12T17:24:18.200Z,95541.56
2023-03-12T17:26:46.788Z,95546.21
2023-03-12T17:29:14.961Z,95549.09
2023-03-12T17:31:43.141Z,95555.83
2023-03-12T17:34:11.510Z,95556.70
2023-03-12T17:36:41.331Z,95561.16
2023-03-12T17:39:09.852Z,95567.98
2023-03-12T17:41:37.987Z,95571.61
2023-03-12T17:44:07.338Z,95578.07
2023-03-12T17:46:39.130Z,95582.88
2023-03-12T17:49:09.485Z,95590.45
2023-03-12T17:51:38.990Z,95588.14
2023-03-12T17:54:07.106Z,95598.58
2023-03-12T17:56:35.333Z,95605.58
2023-03-12T17:59:03.734Z,95608.02
2023-03-12T18:01:32.408Z,95614.48
2023-03-12T18:04:01.106Z,95615.77
2023-03-12T18:06:29.374Z,95621.88
2023-03-12T18:08:57.719Z,95624.09
2023-03-12T18:11:26.140Z,95621.70
2023-03-12T18:13:54.509Z,95616.89
2023-03-12T18:16:22.742Z,95623.36
2023-03-12T18:18:52.658Z,95621.36
2023-03-12T18:21:21.295Z,95629.73
2023-03-12T18:23:49.694Z,95633.15
2023-03-12T18:26:18.067Z,95640.71
2023-03-12T18:28:46.546Z,95640.78
2023-03-12T18:31:14.749Z,95645.60
2023-03-12T18:33:43.199Z,95647.04
2023-03-12T18:36:11.526Z,95646.84
2023-03-12T18:38:39.966Z,95650.89
2023-03-12T18:41:12.519Z,95650.98
2023-03-12T18:43:41.645Z,95650.96
2023-03-12T18:46:13.967Z,95653.52
2023-03-12T18:48:44.199Z,95657.34
2023-03-12T18:51:12.713Z,95657.54
2023-03-12T18:53:41.005Z,95654.78
2023-03-12T18:56:09.601Z,95662.77
2023-03-12T18:58:38.173Z,95662.92
2023-03-12T19:01:06.551Z,95665.37
2023-03-12T19:03:36.510Z,95665.16
2023-03-12T19:06:11.248Z,95667.18
2023-03-12T19:08:40.249Z,95664.87
2023-03-12T19:11:11.237Z,95666.05
2023-03-12T19:13:40.373Z,95670.30
2023-03-12T19:16:10.966Z,95674.16
2023-03-12T19:18:39.874Z,95672.23
2023-03-12T19:21:08.535Z,95673.35
2023-03-12T19:23:36.884Z,95670.82
2023-03-12T19:26:05.607Z,95673.25
2023-03-12T19:28:34.437Z,95676.60
2023-03-12T19:31:05.684Z,95679.14
2023-03-12T19:33:34.011Z,95676.11
2023-03-12T19:36:02.842Z,95683.88
2023-03-12T19:38:31.102Z,95686.42
2023-03-12T19:41:00.103Z,95685.34
2023-03-12T19:43:28.717Z,95690.27
2023-03-12T19:45:57.107Z,95690.29
2023-03-12T19:48:26.675Z,95692.35
2023-03-12T19:50:56.165Z,95695.33
2023-03-12T19:53:25.162Z,95697.95
2023-03-12T19:55:53.768Z,95701.30
2023-03-12T19:58:22.332Z,95700.89
2023-03-12T20:00:50.617Z,95704.71
2023-03-12T20:03:20.926Z,95704.19
2023-03-12T20:05:50.769Z,95708.82
2023-03-12T20:08:21.163Z,95708.64
2023-03-12T20:10:50.087Z,95707.35
2023-03-12T20:13:18.300Z,95711.48
2023-03-12T20:15:48.648Z,95713.77
2023-03-12T20:18:17.062Z,95714.46
2023-03-12T20:20:47.325Z,95715.71
2023-03-12T20:23:15.394Z,95718.85
2023-03-12T20:25:44.149Z,95717.27
2023-03-12T20:28:12.155Z,95717.46
2023-03-12T20:30:43.163Z,95716.36
2023-03-12T20:33:11.638Z,95719.73
2023-03-12T20:35:39.868Z,95719.17
2023-03-12T20:38:08.511Z,95720.55
2023-03-12T20:40:37.114Z,95719.55
2023-03-12T20:43:05.597Z,95718.82
2023-03-12T20:45:34.620Z,95719.63
2023-03-12T20:48:02.958Z,95721.04
2023-03-12T20:50:31.238Z,95726.05
2023-03-12T20:52:59.954Z,95731.25
2023-03-12T20:55:28.508Z,95733.44
2023-03-12T20:57:56.948Z,95735.53
2023-03-12T21:00:25.575Z,95733.05
2023-03-12T21:02:53.811Z,95728.79
2023-03-12T21:05:24.918Z,95725.44
2023-03-12T21:07:54.308Z,95728.60
2023-03-12T21:10:22.435Z,95723.25
2023-03-12T21:12:50.665Z,95724.02
2023-03-12T21:15:19.138Z,95719.05
2023-03-12T21:17:47.652Z,95722.05
2023-03-12T21:20:17.349Z,95718.98
2023-03-12T21:22:47.119Z,95720.87
2023-03-12T21:25:15.950Z,95719.34
2023-03-12T21:27:50.874Z,95720.73
2023-03-12T21:30:20.370Z,95723.84
2023-03-12T21:32:48.824Z,95726.63
2023-03-12T21:35:17.584Z,95731.52
2023-03-12T21:37:46.642Z,95724.83
2023-03-12T21:40:16.049Z,95726.08
2023-03-12T21:42:44.319Z,95731.10
2023-03-12T21:45:12.623Z,95729.30
2023-03-12T21:47:41.707Z,95735.61
2023-03-12T21:50:11.216Z,95728.30
2023-03-12T21:52:43.007Z,95726.89
2023-03-12T21:55:11.654Z,95724.08
2023-03-12T21:57:40.141Z,95723.48
2023-03-12T22:00:14.289Z,95720.52
2023-03-12T22:02:44.469Z,95713.19
2023-03-12T22:05:12.989Z,95711.91
2023-03-12T22:07:41.238Z,95712.44
2023-03-12T22:10:12.138Z,95713.98
2023-03-12T22:12:40.781Z,95716.63
2023-03-12T22:15:09.604Z,95717.84
2023-03-12T22:17:37.933Z,95706.18
2023-03-12T22:20:08.126Z,95703.30
2023-03-12T22:22:36.358Z,95701.38
2023-03-12T22:25:05.183Z,95697.11
2023-03-12T22:27:33.394Z,95701.70
2023-03-12T22:30:01.619Z,95707.93
2023-03-12T22:32:30.211Z,95711.85
2023-03-12T22:34:58.233Z,95718.94
2023-03-12T22:37:26.243Z,95723.47
2023-03-12T22:39:58.291Z,95728.67
2023-03-12T22:42:26.305Z,95727.56
2023-03-12T22:44:54.826Z,95727.85
2023-03-12T22:47:24.046Z,95736.20
2023-03-12T22:49:53.284Z,95738.89
2023-03-12T22:52:21.521Z,95745.64
2023-03-12T22:54:50.293Z,95748.37
2023-03-12T22:57:18.478Z,95747.91
2023-03-12T22:59:48.292Z,95749.33
2023-03-12T23:02:16.709Z,95750.77
2023-03-12T23:04:45.220Z,95753.52
2023-03-12T23:07:15.470Z,95762.31
2023-03-12T23:09:45.389Z,95760.49
2023-03-12T23:12:13.671Z,95755.56
2023-03-12T23:14:41.894Z,95750.06
2023-03-12T23:17:10.316Z,95747.56
2023-03-12T23:19:38.679Z,95741.93
2023-03-12T23:22:07.097Z,95749.23
2023-03-12T23:24:35.774Z,95748.79
2023-03-12T23:27:04.732Z,95750.48
2023-03-12T23:29:34.194Z,95749.33
2023-03-12T23:32:02.785Z,95750.88
2023-03-12T23:34:31.057Z,95747.48
2023-03-12T23:36:59.421Z,95741.23
2023-03-12T23:39:30.166Z,95744.46
2023-03-12T23:41:58.645Z,95745.48
2023-03-12T23:44:26.791Z,95754.16
2023-03-12T23:46:54.995Z,95759.52
2023-03-12T23:49:23.168Z,95762.48
2023-03-12T23:51:51.651Z,95768.17
2023-03-12T23:54:19.716Z,95776.17
2023-03-12T23:56:47.895Z,95784.56
2023-03-12T23:59:15.992Z,95788.31
